sensor_id;sensor_type;location;lat;lon;timestamp;P1;durP1;ratioP1;P2;durP2;ratioP2
55815;SDS011;41744;52.404;16.942;2023-05-29T00:01:59;9.75;;;3.60;;
55815;SDS011;41744;52.404;16.942;2023-05-29T00:04:25;10.60;;;3.95;;
55815;SDS011;41744;52.404;16.942;2023-05-29T00:06:51;7.15;;;3.25;;
55815;SDS011;41744;52.404;16.942;2023-05-29T00:09:17;8.40;;;3.45;;
55815;SDS011;41744;52.404;16.942;2023-05-29T00:11:43;7.50;;;3.35;;
55815;SDS011;41744;52.404;16.942;2023-05-29T00:14:09;16.75;;;4.30;;
55815;SDS011;41744;52.404;16.942;2023-05-29T00:16:38;11.10;;;3.80;;
55815;SDS011;41744;52.404;16.942;2023-05-29T00:19:04;11.38;;;3.67;;
55815;SDS011;41744;52.404;16.942;2023-05-29T00:21:31;9.18;;;3.60;;
55815;SDS011;41744;52.404;16.942;2023-05-29T00:23:57;12.43;;;3.92;;
55815;SDS011;41744;52.404;16.942;2023-05-29T00:26:23;15.77;;;4.50;;
55815;SDS011;41744;52.404;16.942;2023-05-29T00:28:50;11.52;;;4.10;;
55815;SDS011;41744;52.404;16.942;2023-05-29T00:31:16;11.80;;;4.18;;
55815;SDS011;41744;52.404;16.942;2023-05-29T00:33:42;8.60;;;3.63;;
55815;SDS011;41744;52.404;16.942;2023-05-29T00:36:09;13.30;;;4.20;;
55815;SDS011;41744;52.404;16.942;2023-05-29T00:38:35;9.48;;;4.35;;
55815;SDS011;41744;52.404;16.942;2023-05-29T00:41:01;16.73;;;4.35;;
55815;SDS011;41744;52.404;16.942;2023-05-29T00:43:27;13.88;;;4.30;;
55815;SDS011;41744;52.404;16.942;2023-05-29T00:45:53;8.73;;;3.88;;
55815;SDS011;41744;52.404;16.942;2023-05-29T00:48:20;11.73;;;4.50;;
55815;SDS011;41744;52.404;16.942;2023-05-29T00:50:46;18.17;;;4.70;;
55815;SDS011;41744;52.404;16.942;2023-05-29T00:53:12;11.07;;;4.18;;
55815;SDS011;41744;52.404;16.942;2023-05-29T00:55:39;11.15;;;4.20;;
55815;SDS011;41744;52.404;16.942;2023-05-29T00:58:05;14.60;;;4.53;;
55815;SDS011;41744;52.404;16.942;2023-05-29T01:00:31;11.00;;;4.10;;
55815;SDS011;41744;52.404;16.942;2023-05-29T01:02:59;12.55;;;4.25;;
55815;SDS011;41744;52.404;16.942;2023-05-29T01:05:27;10.50;;;4.40;;
55815;SDS011;41744;52.404;16.942;2023-05-29T01:07:55;13.32;;;4.05;;
55815;SDS011;41744;52.404;16.942;2023-05-29T01:10:21;12.68;;;4.82;;
55815;SDS011;41744;52.404;16.942;2023-05-29T01:12:49;11.00;;;4.13;;
55815;SDS011;41744;52.404;16.942;2023-05-29T01:20:22;13.45;;;4.85;;
55815;SDS011;41744;52.404;16.942;2023-05-29T01:22:56;11.88;;;4.68;;
55815;SDS011;41744;52.404;16.942;2023-05-29T01:25:29;11.23;;;4.30;;
55815;SDS011;41744;52.404;16.942;2023-05-29T01:27:55;12.50;;;4.63;;
55815;SDS011;41744;52.404;16.942;2023-05-29T01:30:25;10.77;;;4.40;;
55815;SDS011;41744;52.404;16.942;2023-05-29T01:32:52;10.32;;;4.50;;
55815;SDS011;41744;52.404;16.942;2023-05-29T01:35:18;10.20;;;4.72;;
55815;SDS011;41744;52.404;16.942;2023-05-29T01:37:44;18.45;;;4.32;;
55815;SDS011;41744;52.404;16.942;2023-05-29T01:40:10;13.32;;;4.55;;
55815;SDS011;41744;52.404;16.942;2023-05-29T01:42:37;13.15;;;4.63;;
55815;SDS011;41744;52.404;16.942;2023-05-29T01:45:03;9.45;;;4.07;;
55815;SDS011;41744;52.404;16.942;2023-05-29T01:47:31;12.18;;;4.05;;
55815;SDS011;41744;52.404;16.942;2023-05-29T01:49:57;14.70;;;4.57;;
55815;SDS011;41744;52.404;16.942;2023-05-29T01:52:23;13.32;;;3.90;;
55815;SDS011;41744;52.404;16.942;2023-05-29T01:54:49;16.00;;;4.28;;
55815;SDS011;41744;52.404;16.942;2023-05-29T01:57:16;16.70;;;4.20;;
55815;SDS011;41744;52.404;16.942;2023-05-29T01:59:42;14.55;;;4.78;;
55815;SDS011;41744;52.404;16.942;2023-05-29T02:02:08;13.98;;;4.22;;
55815;SDS011;41744;52.404;16.942;2023-05-29T02:04:34;11.93;;;4.53;;
55815;SDS011;41744;52.404;16.942;2023-05-29T02:07:00;15.90;;;4.63;;
55815;SDS011;41744;52.404;16.942;2023-05-29T02:09:27;12.80;;;4.13;;
55815;SDS011;41744;52.404;16.942;2023-05-29T02:11:54;9.23;;;3.83;;
55815;SDS011;41744;52.404;16.942;2023-05-29T02:14:20;9.13;;;4.18;;
55815;SDS011;41744;52.404;16.942;2023-05-29T02:16:46;11.50;;;3.92;;
55815;SDS011;41744;52.404;16.942;2023-05-29T02:19:13;7.53;;;3.72;;
55815;SDS011;41744;52.404;16.942;2023-05-29T02:21:40;13.10;;;3.97;;
55815;SDS011;41744;52.404;16.942;2023-05-29T02:24:07;9.55;;;3.85;;
55815;SDS011;41744;52.404;16.942;2023-05-29T02:26:33;10.02;;;3.67;;
55815;SDS011;41744;52.404;16.942;2023-05-29T02:29:02;11.85;;;3.88;;
55815;SDS011;41744;52.404;16.942;2023-05-29T02:31:30;10.82;;;3.67;;
55815;SDS011;41744;52.404;16.942;2023-05-29T02:33:56;7.78;;;3.22;;
55815;SDS011;41744;52.404;16.942;2023-05-29T02:36:22;12.85;;;3.53;;
55815;SDS011;41744;52.404;16.942;2023-05-29T02:38:48;10.35;;;3.72;;
55815;SDS011;41744;52.404;16.942;2023-05-29T02:41:14;10.90;;;4.15;;
55815;SDS011;41744;52.404;16.942;2023-05-29T02:43:40;6.90;;;3.55;;
55815;SDS011;41744;52.404;16.942;2023-05-29T02:46:06;10.20;;;3.30;;
55815;SDS011;41744;52.404;16.942;2023-05-29T02:48:32;8.30;;;3.42;;
55815;SDS011;41744;52.404;16.942;2023-05-29T02:50:58;9.20;;;3.45;;
55815;SDS011;41744;52.404;16.942;2023-05-29T02:53:24;9.10;;;3.50;;
55815;SDS011;41744;52.404;16.942;2023-05-29T02:55:50;10.38;;;3.40;;
55815;SDS011;41744;52.404;16.942;2023-05-29T02:58:17;6.93;;;3.20;;
55815;SDS011;41744;52.404;16.942;2023-05-29T03:00:43;10.07;;;3.13;;
55815;SDS011;41744;52.404;16.942;2023-05-29T03:03:09;8.43;;;3.70;;
55815;SDS011;41744;52.404;16.942;2023-05-29T03:05:35;11.40;;;3.50;;
55815;SDS011;41744;52.404;16.942;2023-05-29T03:08:01;8.68;;;3.85;;
55815;SDS011;41744;52.404;16.942;2023-05-29T03:10:27;6.80;;;3.38;;
55815;SDS011;41744;52.404;16.942;2023-05-29T03:12:53;12.85;;;3.67;;
55815;SDS011;41744;52.404;16.942;2023-05-29T03:15:20;9.18;;;3.28;;
55815;SDS011;41744;52.404;16.942;2023-05-29T03:17:46;17.83;;;3.83;;
55815;SDS011;41744;52.404;16.942;2023-05-29T03:20:12;7.97;;;3.25;;
55815;SDS011;41744;52.404;16.942;2023-05-29T03:22:39;9.80;;;3.58;;
55815;SDS011;41744;52.404;16.942;2023-05-29T03:25:05;8.98;;;2.95;;
55815;SDS011;41744;52.404;16.942;2023-05-29T03:27:32;7.70;;;3.22;;
55815;SDS011;41744;52.404;16.942;2023-05-29T03:29:58;7.20;;;3.28;;
55815;SDS011;41744;52.404;16.942;2023-05-29T03:32:25;6.70;;;2.80;;
55815;SDS011;41744;52.404;16.942;2023-05-29T03:34:51;7.07;;;2.90;;
55815;SDS011;41744;52.404;16.942;2023-05-29T03:37:17;6.90;;;3.35;;
55815;SDS011;41744;52.404;16.942;2023-05-29T03:39:43;10.20;;;3.10;;
55815;SDS011;41744;52.404;16.942;2023-05-29T03:42:09;6.88;;;3.42;;
55815;SDS011;41744;52.404;16.942;2023-05-29T03:44:35;9.90;;;4.43;;
55815;SDS011;41744;52.404;16.942;2023-05-29T03:47:01;11.07;;;3.60;;
55815;SDS011;41744;52.404;16.942;2023-05-29T03:49:27;11.80;;;3.53;;
55815;SDS011;41744;52.404;16.942;2023-05-29T03:51:53;7.88;;;3.13;;
55815;SDS011;41744;52.404;16.942;2023-05-29T03:54:19;7.40;;;3.47;;
55815;SDS011;41744;52.404;16.942;2023-05-29T03:56:45;9.57;;;3.33;;
55815;SDS011;41744;52.404;16.942;2023-05-29T03:59:11;8.75;;;3.17;;
55815;SDS011;41744;52.404;16.942;2023-05-29T04:01:37;9.43;;;3.13;;
55815;SDS011;41744;52.404;16.942;2023-05-29T04:04:03;8.60;;;3.40;;
55815;SDS011;41744;52.404;16.942;2023-05-29T04:06:29;8.73;;;3.45;;
55815;SDS011;41744;52.404;16.942;2023-05-29T04:08:55;6.65;;;3.30;;
55815;SDS011;41744;52.404;16.942;2023-05-29T04:11:21;9.02;;;3.70;;
55815;SDS011;41744;52.404;16.942;2023-05-29T04:13:48;10.55;;;3.38;;
55815;SDS011;41744;52.404;16.942;2023-05-29T04:16:14;10.80;;;3.22;;
55815;SDS011;41744;52.404;16.942;2023-05-29T04:18:41;8.30;;;3.30;;
55815;SDS011;41744;52.404;16.942;2023-05-29T04:21:07;12.82;;;4.78;;
55815;SDS011;41744;52.404;16.942;2023-05-29T04:23:33;17.70;;;3.45;;
55815;SDS011;41744;52.404;16.942;2023-05-29T04:25:59;10.07;;;3.53;;
55815;SDS011;41744;52.404;16.942;2023-05-29T04:28:30;7.78;;;3.30;;
55815;SDS011;41744;52.404;16.942;2023-05-29T04:30:56;7.68;;;3.40;;
55815;SDS011;41744;52.404;16.942;2023-05-29T04:33:22;9.57;;;3.80;;
55815;SDS011;41744;52.404;16.942;2023-05-29T04:35:49;9.23;;;3.45;;
55815;SDS011;41744;52.404;16.942;2023-05-29T04:38:15;10.63;;;3.47;;
55815;SDS011;41744;52.404;16.942;2023-05-29T04:40:42;20.15;;;4.82;;
55815;SDS011;41744;52.404;16.942;2023-05-29T04:43:09;7.50;;;3.55;;
55815;SDS011;41744;52.404;16.942;2023-05-29T04:45:35;11.05;;;3.20;;
55815;SDS011;41744;52.404;16.942;2023-05-29T04:48:02;10.77;;;3.65;;
55815;SDS011;41744;52.404;16.942;2023-05-29T04:50:28;8.05;;;3.83;;
55815;SDS011;41744;52.404;16.942;2023-05-29T04:52:56;8.05;;;3.58;;
55815;SDS011;41744;52.404;16.942;2023-05-29T04:55:22;10.15;;;4.05;;
55815;SDS011;41744;52.404;16.942;2023-05-29T04:57:48;14.18;;;3.90;;
55815;SDS011;41744;52.404;16.942;2023-05-29T05:00:15;12.88;;;4.18;;
55815;SDS011;41744;52.404;16.942;2023-05-29T05:02:43;6.75;;;3.72;;
55815;SDS011;41744;52.404;16.942;2023-05-29T05:05:09;9.60;;;3.92;;
55815;SDS011;41744;52.404;16.942;2023-05-29T05:07:35;7.93;;;3.35;;
55815;SDS011;41744;52.404;16.942;2023-05-29T05:10:05;8.90;;;3.92;;
55815;SDS011;41744;52.404;16.942;2023-05-29T05:12:31;8.38;;;3.85;;
55815;SDS011;41744;52.404;16.942;2023-05-29T05:14:57;33.67;;;4.93;;
55815;SDS011;41744;52.404;16.942;2023-05-29T05:17:23;11.05;;;4.15;;
55815;SDS011;41744;52.404;16.942;2023-05-29T05:19:49;9.18;;;3.72;;
55815;SDS011;41744;52.404;16.942;2023-05-29T05:22:17;11.95;;;3.60;;
55815;SDS011;41744;52.404;16.942;2023-05-29T05:24:43;13.20;;;3.92;;
55815;SDS011;41744;52.404;16.942;2023-05-29T05:27:09;9.65;;;4.10;;
55815;SDS011;41744;52.404;16.942;2023-05-29T05:29:35;12.80;;;4.22;;
55815;SDS011;41744;52.404;16.942;2023-05-29T05:32:01;26.88;;;4.55;;
55815;SDS011;41744;52.404;16.942;2023-05-29T05:34:27;6.32;;;3.55;;
55815;SDS011;41744;52.404;16.942;2023-05-29T05:36:53;10.10;;;3.83;;
55815;SDS011;41744;52.404;16.942;2023-05-29T05:39:19;16.58;;;4.32;;
55815;SDS011;41744;52.404;16.942;2023-05-29T05:41:45;13.75;;;3.83;;
55815;SDS011;41744;52.404;16.942;2023-05-29T05:44:11;17.27;;;4.20;;
55815;SDS011;41744;52.404;16.942;2023-05-29T05:46:37;10.70;;;3.53;;
55815;SDS011;41744;52.404;16.942;2023-05-29T05:49:03;10.68;;;3.88;;
55815;SDS011;41744;52.404;16.942;2023-05-29T05:51:29;10.43;;;4.32;;
55815;SDS011;41744;52.404;16.942;2023-05-29T05:53:56;8.95;;;3.88;;
55815;SDS011;41744;52.404;16.942;2023-05-29T05:56:22;10.43;;;3.72;;
55815;SDS011;41744;52.404;16.942;2023-05-29T05:58:48;13.02;;;3.95;;
55815;SDS011;41744;52.404;16.942;2023-05-29T06:01:15;11.77;;;3.95;;
55815;SDS011;41744;52.404;16.942;2023-05-29T06:03:41;13.50;;;3.65;;
55815;SDS011;41744;52.404;16.942;2023-05-29T06:06:07;12.80;;;3.88;;
55815;SDS011;41744;52.404;16.942;2023-05-29T06:08:34;11.55;;;4.03;;
55815;SDS011;41744;52.404;16.942;2023-05-29T06:11:00;11.65;;;4.03;;
55815;SDS011;41744;52.404;16.942;2023-05-29T06:13:26;12.80;;;4.10;;
55815;SDS011;41744;52.404;16.942;2023-05-29T06:15:52;13.82;;;3.83;;
55815;SDS011;41744;52.404;16.942;2023-05-29T06:18:18;14.32;;;4.03;;
55815;SDS011;41744;52.404;16.942;2023-05-29T06:20:44;10.30;;;3.67;;
55815;SDS011;41744;52.404;16.942;2023-05-29T06:23:11;9.20;;;3.47;;
55815;SDS011;41744;52.404;16.942;2023-05-29T06:25:37;9.05;;;3.55;;
55815;SDS011;41744;52.404;16.942;2023-05-29T06:28:03;18.70;;;3.88;;
55815;SDS011;41744;52.404;16.942;2023-05-29T06:30:31;13.90;;;3.28;;
55815;SDS011;41744;52.404;16.942;2023-05-29T06:32:57;6.22;;;3.55;;
55815;SDS011;41744;52.404;16.942;2023-05-29T06:35:23;9.43;;;3.60;;
55815;SDS011;41744;52.404;16.942;2023-05-29T06:37:49;14.05;;;3.80;;
55815;SDS011;41744;52.404;16.942;2023-05-29T06:40:15;9.30;;;4.22;;
55815;SDS011;41744;52.404;16.942;2023-05-29T06:42:41;10.73;;;3.92;;
55815;SDS011;41744;52.404;16.942;2023-05-29T06:45:11;11.85;;;3.65;;
55815;SDS011;41744;52.404;16.942;2023-05-29T06:47:43;11.18;;;3.63;;
55815;SDS011;41744;52.404;16.942;2023-05-29T06:50:09;13.50;;;3.95;;
55815;SDS011;41744;52.404;16.942;2023-05-29T06:52:35;13.82;;;4.10;;
55815;SDS011;41744;52.404;16.942;2023-05-29T06:55:01;12.85;;;3.92;;
55815;SDS011;41744;52.404;16.942;2023-05-29T06:57:27;11.43;;;4.00;;
55815;SDS011;41744;52.404;16.942;2023-05-29T06:59:53;21.38;;;4.32;;
55815;SDS011;41744;52.404;16.942;2023-05-29T07:02:20;14.90;;;4.38;;
55815;SDS011;41744;52.404;16.942;2023-05-29T07:04:46;8.77;;;3.40;;
55815;SDS011;41744;52.404;16.942;2023-05-29T07:07:12;9.55;;;3.28;;
55815;SDS011;41744;52.404;16.942;2023-05-29T07:09:38;7.60;;;3.00;;
55815;SDS011;41744;52.404;16.942;2023-05-29T07:12:04;7.25;;;3.28;;
55815;SDS011;41744;52.404;16.942;2023-05-29T07:14:30;13.40;;;3.88;;
55815;SDS011;41744;52.404;16.942;2023-05-29T07:16:56;9.63;;;3.03;;
55815;SDS011;41744;52.404;16.942;2023-05-29T07:19:23;13.77;;;3.30;;
55815;SDS011;41744;52.404;16.942;2023-05-29T07:21:49;14.15;;;3.20;;
55815;SDS011;41744;52.404;16.942;2023-05-29T07:24:15;13.40;;;4.15;;
55815;SDS011;41744;52.404;16.942;2023-05-29T07:26:41;9.75;;;3.75;;
55815;SDS011;41744;52.404;16.942;2023-05-29T07:29:07;16.70;;;3.97;;
55815;SDS011;41744;52.404;16.942;2023-05-29T07:31:33;12.90;;;3.88;;
55815;SDS011;41744;52.404;16.942;2023-05-29T07:33:59;7.43;;;3.30;;
55815;SDS011;41744;52.404;16.942;2023-05-29T07:36:29;10.73;;;3.67;;
55815;SDS011;41744;52.404;16.942;2023-05-29T07:38:58;10.45;;;3.35;;
55815;SDS011;41744;52.404;16.942;2023-05-29T07:41:26;9.23;;;2.97;;
55815;SDS011;41744;52.404;16.942;2023-05-29T07:43:52;8.23;;;3.17;;
55815;SDS011;41744;52.404;16.942;2023-05-29T07:46:18;13.80;;;3.50;;
55815;SDS011;41744;52.404;16.942;2023-05-29T07:48:45;10.55;;;3.58;;
55815;SDS011;41744;52.404;16.942;2023-05-29T07:51:11;9.07;;;3.55;;
55815;SDS011;41744;52.404;16.942;2023-05-29T07:53:38;10.00;;;3.60;;
55815;SDS011;41744;52.404;16.942;2023-05-29T07:56:04;8.10;;;3.90;;
55815;SDS011;41744;52.404;16.942;2023-05-29T07:58:30;10.20;;;3.22;;
55815;SDS011;41744;52.404;16.942;2023-05-29T08:00:57;12.52;;;3.45;;
55815;SDS011;41744;52.404;16.942;2023-05-29T08:03:26;7.18;;;3.22;;
55815;SDS011;41744;52.404;16.942;2023-05-29T08:05:52;11.18;;;3.40;;
55815;SDS011;41744;52.404;16.942;2023-05-29T08:08:18;6.82;;;3.03;;
55815;SDS011;41744;52.404;16.942;2023-05-29T08:10:44;8.23;;;3.10;;
55815;SDS011;41744;52.404;16.942;2023-05-29T08:13:10;8.98;;;3.10;;
55815;SDS011;41744;52.404;16.942;2023-05-29T08:15:36;7.28;;;3.05;;
55815;SDS011;41744;52.404;16.942;2023-05-29T08:18:02;6.57;;;2.70;;
55815;SDS011;41744;52.404;16.942;2023-05-29T08:20:28;6.60;;;2.90;;
55815;SDS011;41744;52.404;16.942;2023-05-29T08:22:54;5.80;;;2.80;;
55815;SDS011;41744;52.404;16.942;2023-05-29T08:25:20;14.43;;;2.78;;
55815;SDS011;41744;52.404;16.942;2023-05-29T08:27:46;12.00;;;3.65;;
55815;SDS011;41744;52.404;16.942;2023-05-29T08:30:13;9.15;;;3.10;;
55815;SDS011;41744;52.404;16.942;2023-05-29T08:32:39;6.03;;;2.58;;
55815;SDS011;41744;52.404;16.942;2023-05-29T08:35:05;5.93;;;2.75;;
55815;SDS011;41744;52.404;16.942;2023-05-29T08:37:31;6.65;;;2.83;;
55815;SDS011;41744;52.404;16.942;2023-05-29T08:39:57;8.60;;;2.95;;
55815;SDS011;41744;52.404;16.942;2023-05-29T08:42:26;6.32;;;3.03;;
55815;SDS011;41744;52.404;16.942;2023-05-29T08:44:55;8.40;;;2.85;;
55815;SDS011;41744;52.404;16.942;2023-05-29T08:47:26;7.78;;;2.55;;
55815;SDS011;41744;52.404;16.942;2023-05-29T08:49:53;9.73;;;3.13;;
55815;SDS011;41744;52.404;16.942;2023-05-29T08:52:22;9.18;;;2.97;;
55815;SDS011;41744;52.404;16.942;2023-05-29T08:54:54;7.10;;;2.75;;
55815;SDS011;41744;52.404;16.942;2023-05-29T08:57:20;9.38;;;2.72;;
55815;SDS011;41744;52.404;16.942;2023-05-29T08:59:47;10.85;;;2.67;;
55815;SDS011;41744;52.404;16.942;2023-05-29T09:02:14;8.00;;;3.00;;
55815;SDS011;41744;52.404;16.942;2023-05-29T09:04:41;8.07;;;2.65;;
55815;SDS011;41744;52.404;16.942;2023-05-29T09:07:09;6.95;;;2.75;;
55815;SDS011;41744;52.404;16.942;2023-05-29T09:09:36;7.27;;;2.70;;
55815;SDS011;41744;52.404;16.942;2023-05-29T09:12:02;9.93;;;2.92;;
55815;SDS011;41744;52.404;16.942;2023-05-29T09:14:32;8.50;;;3.05;;
55815;SDS011;41744;52.404;16.942;2023-05-29T09:16:59;6.70;;;2.75;;
55815;SDS011;41744;52.404;16.942;2023-05-29T09:19:25;10.35;;;3.20;;
55815;SDS011;41744;52.404;16.942;2023-05-29T09:21:51;11.38;;;2.80;;
55815;SDS011;41744;52.404;16.942;2023-05-29T09:24:18;6.15;;;2.40;;
55815;SDS011;41744;52.404;16.942;2023-05-29T09:26:50;7.10;;;2.30;;
55815;SDS011;41744;52.404;16.942;2023-05-29T09:29:17;7.00;;;2.60;;
55815;SDS011;41744;52.404;16.942;2023-05-29T09:31:45;7.50;;;2.85;;
55815;SDS011;41744;52.404;16.942;2023-05-29T09:34:12;9.70;;;2.60;;
55815;SDS011;41744;52.404;16.942;2023-05-29T09:36:38;5.13;;;2.50;;
55815;SDS011;41744;52.404;16.942;2023-05-29T09:39:04;8.00;;;2.80;;
55815;SDS011;41744;52.404;16.942;2023-05-29T09:41:34;7.53;;;2.38;;
55815;SDS011;41744;52.404;16.942;2023-05-29T09:44:00;5.75;;;2.63;;
55815;SDS011;41744;52.404;16.942;2023-05-29T09:46:28;4.63;;;2.50;;
55815;SDS011;41744;52.404;16.942;2023-05-29T09:48:54;6.53;;;2.50;;
55815;SDS011;41744;52.404;16.942;2023-05-29T09:51:27;8.23;;;2.97;;
55815;SDS011;41744;52.404;16.942;2023-05-29T09:53:53;7.78;;;3.13;;
55815;SDS011;41744;52.404;16.942;2023-05-29T09:56:22;5.00;;;2.65;;
55815;SDS011;41744;52.404;16.942;2023-05-29T09:58:49;9.23;;;2.80;;
55815;SDS011;41744;52.404;16.942;2023-05-29T10:01:16;10.75;;;2.80;;
55815;SDS011;41744;52.404;16.942;2023-05-29T10:03:43;10.02;;;3.45;;
55815;SDS011;41744;52.404;16.942;2023-05-29T10:06:12;6.40;;;2.80;;
55815;SDS011;41744;52.404;16.942;2023-05-29T10:08:47;6.25;;;2.55;;
55815;SDS011;41744;52.404;16.942;2023-05-29T10:11:19;5.82;;;2.67;;
55815;SDS011;41744;52.404;16.942;2023-05-29T10:13:49;9.32;;;3.00;;
55815;SDS011;41744;52.404;16.942;2023-05-29T10:16:18;7.55;;;2.58;;
55815;SDS011;41744;52.404;16.942;2023-05-29T10:18:47;4.72;;;2.58;;
55815;SDS011;41744;52.404;16.942;2023-05-29T10:21:15;6.95;;;2.67;;
55815;SDS011;41744;52.404;16.942;2023-05-29T10:23:43;8.10;;;2.70;;
55815;SDS011;41744;52.404;16.942;2023-05-29T10:28:44;6.57;;;2.50;;
55815;SDS011;41744;52.404;16.942;2023-05-29T10:31:22;9.73;;;2.80;;
55815;SDS011;41744;52.404;16.942;2023-05-29T10:34:07;9.63;;;3.00;;
55815;SDS011;41744;52.404;16.942;2023-05-29T10:36:35;10.75;;;2.95;;
55815;SDS011;41744;52.404;16.942;2023-05-29T10:39:03;5.20;;;2.55;;
55815;SDS011;41744;52.404;16.942;2023-05-29T10:41:30;7.03;;;3.28;;
55815;SDS011;41744;52.404;16.942;2023-05-29T10:43:59;6.00;;;3.00;;
55815;SDS011;41744;52.404;16.942;2023-05-29T10:49:16;6.93;;;2.97;;
55815;SDS011;41744;52.404;16.942;2023-05-29T10:51:42;5.32;;;3.03;;
55815;SDS011;41744;52.404;16.942;2023-05-29T10:54:08;6.78;;;2.80;;
55815;SDS011;41744;52.404;16.942;2023-05-29T10:56:34;5.22;;;2.63;;
55815;SDS011;41744;52.404;16.942;2023-05-29T10:59:01;7.80;;;2.88;;
55815;SDS011;41744;52.404;16.942;2023-05-29T11:01:28;8.20;;;2.95;;
55815;SDS011;41744;52.404;16.942;2023-05-29T11:06:42;5.40;;;3.10;;
55815;SDS011;41744;52.404;16.942;2023-05-29T11:12:15;6.70;;;2.95;;
55815;SDS011;41744;52.404;16.942;2023-05-29T11:15:06;8.43;;;2.85;;
55815;SDS011;41744;52.404;16.942;2023-05-29T11:20:20;9.52;;;2.70;;
55815;SDS011;41744;52.404;16.942;2023-05-29T11:25:24;9.68;;;2.75;;
55815;SDS011;41744;52.404;16.942;2023-05-29T11:27:51;7.38;;;2.97;;
55815;SDS011;41744;52.404;16.942;2023-05-29T11:30:17;7.18;;;2.95;;
55815;SDS011;41744;52.404;16.942;2023-05-29T11:32:44;5.97;;;2.50;;
55815;SDS011;41744;52.404;16.942;2023-05-29T11:35:12;6.68;;;2.97;;
55815;SDS011;41744;52.404;16.942;2023-05-29T11:37:38;9.90;;;2.83;;
55815;SDS011;41744;52.404;16.942;2023-05-29T11:40:08;10.02;;;2.92;;
55815;SDS011;41744;52.404;16.942;2023-05-29T11:42:34;6.57;;;3.10;;
55815;SDS011;41744;52.404;16.942;2023-05-29T11:45:13;6.10;;;3.17;;
55815;SDS011;41744;52.404;16.942;2023-05-29T11:50:25;8.15;;;2.78;;
55815;SDS011;41744;52.404;16.942;2023-05-29T11:52:52;10.02;;;3.10;;
55815;SDS011;41744;52.404;16.942;2023-05-29T11:55:19;6.55;;;3.25;;
55815;SDS011;41744;52.404;16.942;2023-05-29T11:57:45;4.72;;;2.92;;
55815;SDS011;41744;52.404;16.942;2023-05-29T12:00:12;8.45;;;3.13;;
55815;SDS011;41744;52.404;16.942;2023-05-29T12:02:38;5.45;;;3.08;;
55815;SDS011;41744;52.404;16.942;2023-05-29T12:05:05;7.28;;;2.80;;
55815;SDS011;41744;52.404;16.942;2023-05-29T12:07:32;5.45;;;2.95;;
55815;SDS011;41744;52.404;16.942;2023-05-29T12:12:36;5.47;;;2.58;;
55815;SDS011;41744;52.404;16.942;2023-05-29T12:15:04;4.18;;;2.70;;
55815;SDS011;41744;52.404;16.942;2023-05-29T12:17:31;6.32;;;2.90;;
55815;SDS011;41744;52.404;16.942;2023-05-29T12:19:58;7.30;;;2.67;;
55815;SDS011;41744;52.404;16.942;2023-05-29T12:22:33;11.10;;;2.80;;
55815;SDS011;41744;52.404;16.942;2023-05-29T12:25:05;6.28;;;2.90;;
55815;SDS011;41744;52.404;16.942;2023-05-29T12:27:32;4.68;;;2.67;;
55815;SDS011;41744;52.404;16.942;2023-05-29T12:30:02;4.50;;;2.60;;
55815;SDS011;41744;52.404;16.942;2023-05-29T12:32:35;5.97;;;2.65;;
55815;SDS011;41744;52.404;16.942;2023-05-29T12:35:09;11.15;;;3.00;;
55815;SDS011;41744;52.404;16.942;2023-05-29T12:37:35;8.27;;;2.78;;
55815;SDS011;41744;52.404;16.942;2023-05-29T12:40:13;7.45;;;2.80;;
55815;SDS011;41744;52.404;16.942;2023-05-29T12:42:40;6.88;;;2.80;;
55815;SDS011;41744;52.404;16.942;2023-05-29T12:45:06;5.50;;;2.50;;
55815;SDS011;41744;52.404;16.942;2023-05-29T12:47:33;5.75;;;2.50;;
55815;SDS011;41744;52.404;16.942;2023-05-29T12:50:00;7.00;;;3.08;;
55815;SDS011;41744;52.404;16.942;2023-05-29T12:52:29;4.88;;;2.50;;
55815;SDS011;41744;52.404;16.942;2023-05-29T12:54:55;3.92;;;2.50;;
55815;SDS011;41744;52.404;16.942;2023-05-29T12:57:21;5.72;;;2.78;;
55815;SDS011;41744;52.404;16.942;2023-05-29T12:59:48;6.25;;;2.78;;
55815;SDS011;41744;52.404;16.942;2023-05-29T13:02:14;7.72;;;2.70;;
55815;SDS011;41744;52.404;16.942;2023-05-29T13:04:41;6.18;;;3.05;;
55815;SDS011;41744;52.404;16.942;2023-05-29T13:07:07;10.88;;;2.90;;
55815;SDS011;41744;52.404;16.942;2023-05-29T13:09:33;8.43;;;2.70;;
55815;SDS011;41744;52.404;16.942;2023-05-29T13:11:59;6.30;;;2.60;;
55815;SDS011;41744;52.404;16.942;2023-05-29T13:14:26;10.98;;;3.45;;
55815;SDS011;41744;52.404;16.942;2023-05-29T13:16:52;11.05;;;2.60;;
55815;SDS011;41744;52.404;16.942;2023-05-29T13:19:18;8.25;;;2.70;;
55815;SDS011;41744;52.404;16.942;2023-05-29T13:21:44;5.38;;;2.40;;
55815;SDS011;41744;52.404;16.942;2023-05-29T13:24:13;5.93;;;2.42;;
55815;SDS011;41744;52.404;16.942;2023-05-29T13:26:39;8.98;;;3.10;;
55815;SDS011;41744;52.404;16.942;2023-05-29T13:29:07;3.83;;;2.20;;
55815;SDS011;41744;52.404;16.942;2023-05-29T13:31:33;5.28;;;2.80;;
55815;SDS011;41744;52.404;16.942;2023-05-29T13:33:59;6.47;;;2.60;;
55815;SDS011;41744;52.404;16.942;2023-05-29T13:36:25;6.35;;;2.28;;
55815;SDS011;41744;52.404;16.942;2023-05-29T13:38:51;6.68;;;2.60;;
55815;SDS011;41744;52.404;16.942;2023-05-29T13:41:17;5.63;;;3.10;;
55815;SDS011;41744;52.404;16.942;2023-05-29T13:43:43;5.85;;;2.80;;
55815;SDS011;41744;52.404;16.942;2023-05-29T13:46:10;8.15;;;2.60;;
55815;SDS011;41744;52.404;16.942;2023-05-29T13:48:36;6.40;;;2.78;;
55815;SDS011;41744;52.404;16.942;2023-05-29T13:51:02;6.30;;;2.70;;
55815;SDS011;41744;52.404;16.942;2023-05-29T13:53:28;10.35;;;2.75;;
55815;SDS011;41744;52.404;16.942;2023-05-29T13:55:54;7.30;;;2.42;;
55815;SDS011;41744;52.404;16.942;2023-05-29T13:58:20;6.20;;;2.35;;
55815;SDS011;41744;52.404;16.942;2023-05-29T14:00:46;8.52;;;2.70;;
55815;SDS011;41744;52.404;16.942;2023-05-29T14:03:12;5.60;;;2.95;;
55815;SDS011;41744;52.404;16.942;2023-05-29T14:05:38;6.85;;;3.00;;
55815;SDS011;41744;52.404;16.942;2023-05-29T14:08:04;6.75;;;2.72;;
55815;SDS011;41744;52.404;16.942;2023-05-29T14:10:30;6.95;;;3.00;;
55815;SDS011;41744;52.404;16.942;2023-05-29T14:12:56;7.88;;;2.58;;
55815;SDS011;41744;52.404;16.942;2023-05-29T14:15:22;5.57;;;2.60;;
55815;SDS011;41744;52.404;16.942;2023-05-29T14:17:48;5.22;;;2.65;;
55815;SDS011;41744;52.404;16.942;2023-05-29T14:20:14;5.70;;;2.95;;
55815;SDS011;41744;52.404;16.942;2023-05-29T14:22:40;6.82;;;2.50;;
55815;SDS011;41744;52.404;16.942;2023-05-29T14:25:06;6.25;;;2.72;;
55815;SDS011;41744;52.404;16.942;2023-05-29T14:27:33;5.75;;;2.67;;
55815;SDS011;41744;52.404;16.942;2023-05-29T14:29:59;4.88;;;2.33;;
55815;SDS011;41744;52.404;16.942;2023-05-29T14:32:25;5.78;;;3.30;;
55815;SDS011;41744;52.404;16.942;2023-05-29T14:34:51;4.28;;;2.28;;
55815;SDS011;41744;52.404;16.942;2023-05-29T14:37:17;4.90;;;2.80;;
55815;SDS011;41744;52.404;16.942;2023-05-29T14:39:43;5.25;;;2.90;;
55815;SDS011;41744;52.404;16.942;2023-05-29T14:42:09;13.00;;;3.00;;
55815;SDS011;41744;52.404;16.942;2023-05-29T14:44:35;12.75;;;2.95;;
55815;SDS011;41744;52.404;16.942;2023-05-29T14:47:02;5.88;;;2.40;;
55815;SDS011;41744;52.404;16.942;2023-05-29T14:49:28;7.93;;;2.20;;
55815;SDS011;41744;52.404;16.942;2023-05-29T14:51:57;13.38;;;2.88;;
55815;SDS011;41744;52.404;16.942;2023-05-29T14:54:23;5.00;;;2.20;;